Time;durP1;ratioP1;P1;durP2;ratioP2;P2;SDS_P1;SDS_P2;PMS_P1;PMS_P2;Temp;Humidity;BMP_temperature;BMP_pressure;BME280_temperature;BME280_humidity;BME280_pressure;Samples;Min_cycle;Max_cycle;Signal;HPM_P1;HPM_P2
2023/01/02 00:01:26;;;;;;;;;;;10.50;99.90;;;;;;5015104;28;19929;-83
2023/01/02 00:03:55;;;;;;;;;;;10.50;99.90;;;;;;5013186;28;20027;-83
2023/01/02 00:06:22;;;;;;;;;;;10.50;99.90;;;;;;5014911;28;20007;-83
2023/01/02 00:08:47;;;;;;;;;;;10.50;99.90;;;;;;5015698;28;19925;-83
2023/01/02 00:11:13;;;;;;;;;;;10.50;99.90;;;;;;5015172;28;20008;-83
2023/01/02 00:13:38;;;;;;;;;;;10.50;99.90;;;;;;5015589;28;20308;-83
2023/01/02 00:16:04;;;;;;;;;;;10.50;99.90;;;;;;5014578;28;21490;-82
2023/01/02 00:18:30;;;;;;;;;;;10.50;99.90;;;;;;4982216;28;19938;-83
2023/01/02 00:20:55;;;;;;;;;;;10.50;99.90;;;;;;4996166;28;19984;-83
2023/01/02 00:23:21;;;;;;;;;;;10.50;99.90;;;;;;5013649;28;20369;-83
2023/01/02 00:25:47;;;;;;;;;;;10.50;99.90;;;;;;5013735;28;19952;-83
2023/01/02 00:28:13;;;;;;;;;;;10.50;99.90;;;;;;5014511;28;19973;-83
2023/01/02 00:30:39;;;;;;;;;;;10.60;99.90;;;;;;5009785;28;20385;-82
2023/01/02 00:33:05;;;;;;;;;;;10.50;99.90;;;;;;4996934;28;19925;-82
2023/01/02 00:35:31;;;;;;;;;;;10.50;99.90;;;;;;5013670;28;19976;-82
2023/01/02 00:37:56;;;;;;;;;;;10.50;99.90;;;;;;5010153;28;19941;-82
2023/01/02 00:40:22;;;;;;;;;;;10.60;99.90;;;;;;5014257;28;19952;-82
2023/01/02 00:42:48;;;;;;;;;;;10.60;99.90;;;;;;4994504;28;20369;-82
2023/01/02 00:45:13;;;;;;;;;;;10.60;99.90;;;;;;5011879;28;19936;-82
2023/01/02 00:47:39;;;;;;;;;;;10.60;99.90;;;;;;5000027;28;19929;-82
2023/01/02 00:50:05;;;;;;;;;;;10.60;99.90;;;;;;5028744;28;20396;-83
2023/01/02 00:52:30;;;;;;;;;;;10.60;99.90;;;;;;5009922;28;19929;-82
2023/01/02 00:54:56;;;;;;;;;;;10.60;99.90;;;;;;5012491;28;21404;-83
2023/01/02 00:57:21;;;;;;;;;;;10.70;99.90;;;;;;5012607;28;20019;-82
2023/01/02 00:59:47;;;;;;;;;;;10.70;99.90;;;;;;5012594;28;19936;-83
2023/01/02 01:02:12;;;;;;;;;;;10.70;99.90;;;;;;4995313;28;19929;-83
2023/01/02 01:04:38;;;;;;;;;;;10.70;99.90;;;;;;5010217;28;19925;-83
2023/01/02 01:07:04;;;;;;;;;;;10.70;99.90;;;;;;5017546;28;19933;-83
2023/01/02 01:09:29;;;;;;;;;;;10.70;99.90;;;;;;5021538;28;19976;-82
2023/01/02 01:11:55;;;;;;;;;;;10.70;99.90;;;;;;5012679;28;20389;-83
2023/01/02 01:14:22;;;;;;;;;;;10.70;99.90;;;;;;5015508;28;20341;-83
2023/01/02 01:16:48;;;;;;;;;;;10.80;99.90;;;;;;5011475;28;19960;-82
2023/01/02 01:19:13;;;;;;;;;;;10.70;99.90;;;;;;5012793;28;19925;-82
2023/01/02 01:21:39;;;;;;;;;;;10.70;99.90;;;;;;5012567;28;19945;-83
2023/01/02 01:24:05;;;;;;;;;;;10.80;99.90;;;;;;4995264;28;19929;-82
2023/01/02 01:26:30;;;;;;;;;;;10.80;99.90;;;;;;5012082;28;19929;-82
2023/01/02 01:28:56;;;;;;;;;;;10.80;99.90;;;;;;5016187;28;20008;-83
2023/01/02 01:31:22;;;;;;;;;;;10.80;99.90;;;;;;5014274;28;19926;-82
2023/01/02 01:33:48;;;;;;;;;;;10.80;99.90;;;;;;5012909;28;20660;-82
2023/01/02 01:36:21;;;;;;;;;;;10.80;99.90;;;;;;5025893;28;19948;-82
2023/01/02 01:38:47;;;;;;;;;;;10.80;99.90;;;;;;5010868;28;19967;-83
2023/01/02 01:41:14;;;;;;;;;;;10.80;99.90;;;;;;4994432;28;19929;-83
2023/01/02 01:43:41;;;;;;;;;;;10.90;99.90;;;;;;5008275;28;19953;-81
2023/01/02 01:46:16;;;;;;;;;;;10.90;99.90;;;;;;5010780;28;19948;-83
2023/01/02 01:48:42;;;;;;;;;;;10.90;99.90;;;;;;5012021;28;20566;-83
2023/01/02 01:51:08;;;;;;;;;;;10.90;99.90;;;;;;5010225;28;19925;-83
2023/01/02 01:53:34;;;;;;;;;;;10.90;99.90;;;;;;5010704;28;19933;-82
2023/01/02 01:56:02;;;;;;;;;;;10.90;99.90;;;;;;5006999;28;20317;-83
2023/01/02 01:58:30;;;;;;;;;;;10.90;99.90;;;;;;5010657;28;20327;-83
2023/01/02 02:00:56;;;;;;;;;;;10.90;99.90;;;;;;4995756;28;19933;-83
2023/01/02 02:03:24;;;;;;;;;;;10.90;99.90;;;;;;5012291;28;19925;-83
2023/01/02 02:05:50;;;;;;;;;;;10.90;99.90;;;;;;5012008;28;19930;-82
2023/01/02 02:08:15;;;;;;;;;;;10.90;99.90;;;;;;5012654;28;19944;-82
2023/01/02 02:10:41;;;;;;;;;;;10.90;99.90;;;;;;5010243;28;19964;-83
2023/01/02 02:13:07;;;;;;;;;;;10.90;99.90;;;;;;5015203;28;19925;-83
2023/01/02 02:15:59;;;;;;;;;;;10.90;99.90;;;;;;5010258;28;20009;-83
2023/01/02 02:18:35;;;;;;;;;;;10.90;99.90;;;;;;5012026;28;19929;-82
2023/01/02 02:21:20;;;;;;;;;;;10.90;99.90;;;;;;5009375;28;19933;-83
2023/01/02 02:23:54;;;;;;;;;;;10.90;99.90;;;;;;5011290;28;19933;-82
2023/01/02 02:26:33;;;;;;;;;;;10.90;99.90;;;;;;5008350;28;20075;-82
2023/01/02 02:29:14;;;;;;;;;;;10.90;99.90;;;;;;5010588;28;19930;-82
2023/01/02 02:32:13;;;;;;;;;;;10.90;99.90;;;;;;5009825;28;20044;-82
2023/01/02 02:34:57;;;;;;;;;;;10.90;99.90;;;;;;4967341;28;19930;-82
2023/01/02 02:37:26;;;;;;;;;;;10.90;99.90;;;;;;5009811;28;19936;-82
2023/01/02 02:40:10;;;;;;;;;;;10.90;99.90;;;;;;5009507;28;19930;-82
2023/01/02 02:42:41;;;;;;;;;;;10.90;99.90;;;;;;5010697;28;19929;-81
2023/01/02 02:45:15;;;;;;;;;;;11.00;99.90;;;;;;5011225;28;19968;-82
2023/01/02 02:47:41;;;;;;;;;;;11.00;99.90;;;;;;5006898;28;20344;-81
2023/01/02 02:50:30;;;;;;;;;;;11.00;99.90;;;;;;5011329;28;19934;-82
2023/01/02 02:53:15;;;;;;;;;;;11.00;99.90;;;;;;5002037;28;20301;-82
2023/01/02 02:55:47;;;;;;;;;;;11.00;99.90;;;;;;5020010;28;19953;-81
2023/01/02 02:58:13;;;;;;;;;;;11.00;99.90;;;;;;5007090;28;19929;-82
2023/01/02 03:00:39;;;;;;;;;;;11.00;99.90;;;;;;5008716;28;20552;-82
2023/01/02 03:03:17;;;;;;;;;;;11.10;99.90;;;;;;5011495;28;19926;-82
2023/01/02 03:05:52;;;;;;;;;;;11.00;99.90;;;;;;5006712;28;20024;-81
2023/01/02 03:08:23;;;;;;;;;;;11.10;99.90;;;;;;4995616;28;19925;-82
2023/01/02 03:10:51;;;;;;;;;;;11.10;99.90;;;;;;4987606;28;19940;-83
2023/01/02 03:13:26;;;;;;;;;;;11.10;99.90;;;;;;5009921;28;19926;-83
2023/01/02 03:16:11;;;;;;;;;;;11.10;99.90;;;;;;5009935;28;19925;-82
2023/01/02 03:18:46;;;;;;;;;;;11.10;99.90;;;;;;5009292;28;19926;-82
2023/01/02 03:21:31;;;;;;;;;;;11.10;99.90;;;;;;5010499;28;19929;-81
2023/01/02 03:23:59;;;;;;;;;;;11.10;99.90;;;;;;4990868;28;19968;-81
2023/01/02 03:26:27;;;;;;;;;;;11.10;99.90;;;;;;5025879;28;19934;-81
2023/01/02 03:28:55;;;;;;;;;;;11.00;99.90;;;;;;5006158;28;19945;-81
2023/01/02 03:31:23;;;;;;;;;;;11.10;99.90;;;;;;5025497;28;19930;-81
2023/01/02 03:33:51;;;;;;;;;;;11.10;99.90;;;;;;5011507;28;19969;-81
2023/01/02 03:36:20;;;;;;;;;;;11.10;99.90;;;;;;5013174;28;19930;-81
2023/01/02 03:38:58;;;;;;;;;;;11.00;99.90;;;;;;5011759;28;19930;-81
2023/01/02 03:41:27;;;;;;;;;;;11.10;99.90;;;;;;5014431;28;19926;-81
2023/01/02 03:43:54;;;;;;;;;;;11.00;99.90;;;;;;5011197;28;19929;-81
2023/01/02 03:46:31;;;;;;;;;;;11.00;99.90;;;;;;5025706;28;19936;-81
2023/01/02 03:49:01;;;;;;;;;;;11.10;99.90;;;;;;5012382;28;20355;-81
2023/01/02 03:51:26;;;;;;;;;;;11.10;99.90;;;;;;5010848;28;19933;-81
2023/01/02 03:53:52;;;;;;;;;;;11.10;99.90;;;;;;4997231;28;19925;-81
2023/01/02 03:56:21;;;;;;;;;;;11.10;99.90;;;;;;5028379;28;20713;-80
2023/01/02 03:58:53;;;;;;;;;;;11.10;99.90;;;;;;5026492;28;19933;-81
2023/01/02 04:01:39;;;;;;;;;;;11.10;99.90;;;;;;5012777;28;21188;-80
2023/01/02 04:04:14;;;;;;;;;;;11.10;99.90;;;;;;5013873;28;20016;-81
2023/01/02 04:06:42;;;;;;;;;;;11.10;99.90;;;;;;5013433;28;19952;-81
2023/01/02 04:09:13;;;;;;;;;;;11.10;99.90;;;;;;5008084;28;20155;-81
2023/01/02 04:11:41;;;;;;;;;;;11.20;99.90;;;;;;5013573;28;19940;-80
2023/01/02 04:14:16;;;;;;;;;;;11.20;99.90;;;;;;5013737;28;19926;-81
2023/01/02 04:16:43;;;;;;;;;;;11.20;99.90;;;;;;5015185;28;19937;-81
2023/01/02 04:19:11;;;;;;;;;;;11.20;99.90;;;;;;5018511;28;19930;-81
2023/01/02 04:21:38;;;;;;;;;;;11.20;99.90;;;;;;5018483;28;19936;-81
2023/01/02 04:24:06;;;;;;;;;;;11.20;99.90;;;;;;5014523;28;19929;-81
2023/01/02 04:26:42;;;;;;;;;;;11.30;99.90;;;;;;5014358;28;19933;-81
2023/01/02 04:29:08;;;;;;;;;;;11.30;99.90;;;;;;5015202;28;20331;-80
2023/01/02 04:31:33;;;;;;;;;;;11.20;99.90;;;;;;5010984;28;20037;-81
2023/01/02 04:34:00;;;;;;;;;;;11.20;99.90;;;;;;5010413;28;19957;-81
2023/01/02 04:36:26;;;;;;;;;;;11.30;99.90;;;;;;5010054;28;19933;-81
2023/01/02 04:38:51;;;;;;;;;;;11.30;99.90;;;;;;5028685;28;19930;-82
2023/01/02 04:41:25;;;;;;;;;;;11.30;99.90;;;;;;5013378;28;19925;-81
2023/01/02 04:43:52;;;;;;;;;;;11.40;99.90;;;;;;5012992;28;19980;-81
2023/01/02 04:46:17;;;;;;;;;;;11.40;99.90;;;;;;5027451;28;20289;-81
2023/01/02 04:48:43;;;;;;;;;;;11.40;99.90;;;;;;5012625;28;19957;-81
2023/01/02 04:51:08;;;;;;;;;;;11.50;99.90;;;;;;4995528;28;19933;-81
2023/01/02 04:53:34;;;;;;;;;;;11.50;99.90;;;;;;5011319;28;20064;-82
2023/01/02 04:56:00;;;;;;;;;;;11.50;99.90;;;;;;5010276;28;19933;-81
2023/01/02 04:58:26;;;;;;;;;;;11.50;99.90;;;;;;5011041;28;19929;-81
2023/01/02 05:00:52;;;;;;;;;;;11.50;99.90;;;;;;4994111;28;19926;-81
2023/01/02 05:03:18;;;;;;;;;;;11.50;99.90;;;;;;5012919;28;19956;-80
2023/01/02 05:05:43;;;;;;;;;;;11.50;99.90;;;;;;4997816;28;19937;-80
2023/01/02 05:08:09;;;;;;;;;;;11.60;99.90;;;;;;5012838;28;20036;-81
2023/01/02 05:10:34;;;;;;;;;;;11.50;99.90;;;;;;5010887;28;20044;-81
2023/01/02 05:13:00;;;;;;;;;;;11.50;99.90;;;;;;5008227;28;19929;-81
2023/01/02 05:15:26;;;;;;;;;;;11.60;99.90;;;;;;5027444;28;19925;-80
2023/01/02 05:17:51;;;;;;;;;;;11.60;99.90;;;;;;5013234;28;19926;-80
2023/01/02 05:20:17;;;;;;;;;;;11.60;99.90;;;;;;5012054;28;19930;-80
2023/01/02 05:25:30;;;;;;;;;;;11.60;99.90;;;;;;5011514;28;19980;-80
2023/01/02 05:27:55;;;;;;;;;;;11.60;99.90;;;;;;5012937;28;20016;-80
2023/01/02 05:30:21;;;;;;;;;;;11.60;99.90;;;;;;5028233;28;19976;-80
2023/01/02 05:32:47;;;;;;;;;;;11.60;99.90;;;;;;5009128;28;19932;-80
2023/01/02 05:35:12;;;;;;;;;;;11.70;99.90;;;;;;5011898;28;19930;-79
2023/01/02 05:37:38;;;;;;;;;;;11.60;99.90;;;;;;5010737;28;19940;-80
2023/01/02 05:40:04;;;;;;;;;;;11.60;99.90;;;;;;5002541;28;19936;-79
2023/01/02 05:42:29;;;;;;;;;;;11.70;99.90;;;;;;5020345;28;19929;-80
2023/01/02 05:44:55;;;;;;;;;;;11.70;99.90;;;;;;5008849;28;19926;-80
2023/01/02 05:47:20;;;;;;;;;;;11.70;99.90;;;;;;5012797;28;19930;-80
2023/01/02 05:49:46;;;;;;;;;;;11.70;99.90;;;;;;5027130;28;19951;-80
2023/01/02 05:52:12;;;;;;;;;;;11.70;99.90;;;;;;5012309;28;19937;-80
2023/01/02 05:54:37;;;;;;;;;;;11.70;99.90;;;;;;5011716;28;20064;-80
2023/01/02 05:57:03;;;;;;;;;;;11.70;99.90;;;;;;5010153;28;20391;-80
2023/01/02 05:59:28;;;;;;;;;;;11.70;99.90;;;;;;5011525;28;20296;-80
2023/01/02 06:01:54;;;;;;;;;;;11.70;99.90;;;;;;5028322;28;19933;-80
2023/01/02 06:04:20;;;;;;;;;;;11.80;99.90;;;;;;4995777;28;19933;-80
2023/01/02 06:06:46;;;;;;;;;;;11.80;99.90;;;;;;4985892;28;19926;-80
2023/01/02 06:09:12;;;;;;;;;;;11.80;99.90;;;;;;5011360;28;19925;-80
2023/01/02 06:11:38;;;;;;;;;;;11.80;99.90;;;;;;5013944;28;19936;-80
2023/01/02 06:14:03;;;;;;;;;;;11.80;99.90;;;;;;5010434;28;19925;-80
2023/01/02 06:16:29;;;;;;;;;;;11.80;99.90;;;;;;5011331;28;19929;-80
2023/01/02 06:18:55;;;;;;;;;;;11.80;99.90;;;;;;4999402;28;19940;-80
2023/01/02 06:21:21;;;;;;;;;;;11.80;99.90;;;;;;5011446;28;19926;-79
2023/01/02 06:23:46;;;;;;;;;;;11.80;99.90;;;;;;5011185;28;20364;-79
2023/01/02 06:26:16;;;;;;;;;;;11.80;99.90;;;;;;5016758;28;19925;-80
2023/01/02 06:28:42;;;;;;;;;;;11.80;99.90;;;;;;5016304;28;20012;-79
2023/01/02 06:31:09;;;;;;;;;;;11.80;99.90;;;;;;4998743;28;19929;-79
2023/01/02 06:33:35;;;;;;;;;;;11.80;99.90;;;;;;5016298;28;19936;-79
2023/01/02 06:36:01;;;;;;;;;;;11.80;99.90;;;;;;5015592;28;19929;-79
2023/01/02 06:38:27;;;;;;;;;;;11.80;99.90;;;;;;5013675;28;19996;-80
2023/01/02 06:40:57;;;;;;;;;;;11.90;99.90;;;;;;5014075;28;20289;-80
2023/01/02 06:43:23;;;;;;;;;;;11.80;99.90;;;;;;5015105;28;19925;-80
2023/01/02 06:45:49;;;;;;;;;;;11.90;99.90;;;;;;5032375;28;19976;-79
2023/01/02 06:48:15;;;;;;;;;;;11.90;99.90;;;;;;5014277;28;19925;-80
2023/01/02 06:50:41;;;;;;;;;;;11.90;99.90;;;;;;4998319;28;19929;-80
2023/01/02 06:53:06;;;;;;;;;;;11.80;99.90;;;;;;5001535;28;19929;-79
2023/01/02 06:55:32;;;;;;;;;;;11.90;99.90;;;;;;5023243;28;20004;-80
2023/01/02 06:57:58;;;;;;;;;;;11.90;99.90;;;;;;4992623;28;19930;-81
2023/01/02 07:00:23;;;;;;;;;;;11.80;99.90;;;;;;5005409;28;20545;-81
2023/01/02 07:02:49;;;;;;;;;;;11.80;99.90;;;;;;4992320;28;19933;-82
2023/01/02 07:05:14;;;;;;;;;;;11.80;99.90;;;;;;5009228;28;19926;-82
2023/01/02 07:07:40;;;;;;;;;;;11.80;99.90;;;;;;5009998;28;19936;-82
2023/01/02 07:10:06;;;;;;;;;;;11.70;99.90;;;;;;5023976;28;20007;-81
2023/01/02 07:12:33;;;;;;;;;;;11.60;99.90;;;;;;5026669;28;20407;-81
2023/01/02 07:14:58;;;;;;;;;;;11.50;99.90;;;;;;5010936;28;20012;-81
2023/01/02 07:17:24;;;;;;;;;;;11.40;99.90;;;;;;5029449;28;20448;-81
2023/01/02 07:19:50;;;;;;;;;;;11.20;99.90;;;;;;5009651;28;19926;-81
2023/01/02 07:22:15;;;;;;;;;;;11.10;99.90;;;;;;5008749;28;20414;-82
2023/01/02 07:24:41;;;;;;;;;;;10.90;99.90;;;;;;5023802;28;19926;-82
2023/01/02 07:27:06;;;;;;;;;;;10.90;99.90;;;;;;4977458;28;19980;-82
2023/01/02 07:29:32;;;;;;;;;;;10.80;99.90;;;;;;5008948;28;19925;-82
2023/01/02 07:31:57;;;;;;;;;;;10.70;99.90;;;;;;5009811;28;19984;-82
2023/01/02 07:34:23;;;;;;;;;;;10.60;99.90;;;;;;5015889;28;19980;-82
2023/01/02 07:36:48;;;;;;;;;;;10.50;99.90;;;;;;5015865;28;19999;-82
2023/01/02 07:39:14;;;;;;;;;;;10.50;99.90;;;;;;5020846;28;19925;-82
2023/01/02 07:41:40;;;;;;;;;;;10.40;99.90;;;;;;5020571;28;20055;-82
2023/01/02 07:44:05;;;;;;;;;;;10.40;99.90;;;;;;5015929;28;19929;-81
2023/01/02 07:46:31;;;;;;;;;;;10.30;99.90;;;;;;4999519;28;19926;-81
2023/01/02 07:48:57;;;;;;;;;;;10.20;99.90;;;;;;5000015;28;20016;-81
2023/01/02 07:51:22;;;;;;;;;;;10.20;99.90;;;;;;5016617;28;19932;-82
2023/01/02 07:53:48;;;;;;;;;;;10.20;99.90;;;;;;5016183;28;20001;-81
2023/01/02 07:56:13;;;;;;;;;;;10.10;99.90;;;;;;5000553;28;19975;-81
2023/01/02 07:58:39;;;;;;;;;;;10.10;99.90;;;;;;4981505;28;19929;-81
2023/01/02 08:01:09;;;;;;;;;;;10.00;99.90;;;;;;4999759;28;19988;-81
2023/01/02 08:03:35;;;;;;;;;;;9.90;99.90;;;;;;5018323;28;19926;-81
2023/01/02 08:06:11;;;;;;;;;;;9.90;99.90;;;;;;5033122;28;19929;-81
2023/01/02 08:08:37;;;;;;;;;;;9.80;99.90;;;;;;5032892;28;19933;-81
2023/01/02 08:11:03;;;;;;;;;;;9.70;99.90;;;;;;4998945;28;19929;-81
2023/01/02 08:13:29;;;;;;;;;;;9.60;99.90;;;;;;5018603;28;19936;-81
2023/01/02 08:15:54;;;;;;;;;;;9.50;99.90;;;;;;5020272;28;19925;-81
2023/01/02 08:18:20;;;;;;;;;;;9.50;99.90;;;;;;5018764;28;19952;-81
2023/01/02 08:20:45;;;;;;;;;;;9.40;99.90;;;;;;5029507;28;20009;-82
2023/01/02 08:23:11;;;;;;;;;;;9.40;99.90;;;;;;4997700;28;19925;-82
2023/01/02 08:25:37;;;;;;;;;;;9.30;99.90;;;;;;5030101;28;19925;-82
2023/01/02 08:28:04;;;;;;;;;;;9.30;99.90;;;;;;5012710;28;20136;-82
2023/01/02 08:30:29;;;;;;;;;;;9.20;99.90;;;;;;5031451;28;20416;-82
2023/01/02 08:32:55;;;;;;;;;;;9.20;99.90;;;;;;5014053;28;19926;-82
2023/01/02 08:35:21;;;;;;;;;;;9.20;99.90;;;;;;5012746;28;19925;-83
2023/01/02 08:37:46;;;;;;;;;;;9.10;99.90;;;;;;5007207;28;19926;-80
2023/01/02 08:40:12;;;;;;;;;;;9.10;99.90;;;;;;5011008;28;19929;-83
2023/01/02 08:42:40;;;;;;;;;;;9.00;99.90;;;;;;5014054;28;19925;-82
2023/01/02 08:45:05;;;;;;;;;;;9.00;99.90;;;;;;4994747;28;19929;-82
2023/01/02 08:47:31;;;;;;;;;;;8.90;99.90;;;;;;5013961;28;19964;-83
2023/01/02 08:49:57;;;;;;;;;;;8.90;99.90;;;;;;5012112;28;19949;-83
2023/01/02 08:52:22;;;;;;;;;;;8.90;99.90;;;;;;4996288;28;19972;-83
2023/01/02 08:54:48;;;;;;;;;;;8.90;99.90;;;;;;5015756;28;19926;-83
2023/01/02 08:57:13;;;;;;;;;;;8.90;99.90;;;;;;5013383;28;19961;-82
2023/01/02 08:59:39;;;;;;;;;;;8.90;99.90;;;;;;4981365;28;19936;-82
2023/01/02 09:02:04;;;;;;;;;;;8.80;99.90;;;;;;5011121;28;20009;-82
2023/01/02 09:04:30;;;;;;;;;;;8.80;99.90;;;;;;5010492;28;19929;-82
2023/01/02 09:06:55;;;;;;;;;;;8.80;99.90;;;;;;5013509;28;19929;-83
2023/01/02 09:09:21;;;;;;;;;;;8.80;99.90;;;;;;4996838;28;19925;-82
2023/01/02 09:11:49;;;;;;;;;;;8.70;99.90;;;;;;5005953;28;19933;-82
2023/01/02 09:14:15;;;;;;;;;;;8.70;99.90;;;;;;5011238;28;19960;-82
2023/01/02 09:16:41;;;;;;;;;;;8.70;99.90;;;;;;5013594;28;20315;-82
2023/01/02 09:19:06;;;;;;;;;;;8.70;99.90;;;;;;5011291;28;20276;-82
2023/01/02 09:21:32;;;;;;;;;;;8.70;99.90;;;;;;4995497;28;21317;-82
2023/01/02 09:23:58;;;;;;;;;;;8.70;99.90;;;;;;5011934;28;20542;-82
2023/01/02 09:26:23;;;;;;;;;;;8.70;99.90;;;;;;4999583;28;19926;-83
2023/01/02 09:28:49;;;;;;;;;;;8.70;99.90;;;;;;5014236;28;19969;-82
2023/01/02 09:31:15;;;;;;;;;;;8.70;99.90;;;;;;5012591;28;19930;-81
2023/01/02 09:33:42;;;;;;;;;;;8.60;99.90;;;;;;5012851;28;19929;-82
2023/01/02 09:36:09;;;;;;;;;;;8.70;99.90;;;;;;4996067;28;19930;-82
2023/01/02 09:38:35;;;;;;;;;;;8.70;99.90;;;;;;5005627;28;20007;-82
2023/01/02 09:41:04;;;;;;;;;;;8.70;99.90;;;;;;5029101;28;19964;-82
2023/01/02 09:43:29;;;;;;;;;;;8.70;99.90;;;;;;5011617;28;19929;-82
2023/01/02 09:45:57;;;;;;;;;;;8.70;99.90;;;;;;5016183;28;19945;-82
2023/01/02 09:48:30;;;;;;;;;;;8.70;99.90;;;;;;5015623;28;19926;-82
2023/01/02 09:50:56;;;;;;;;;;;8.70;99.90;;;;;;5012878;28;19959;-82
2023/01/02 09:53:22;;;;;;;;;;;8.80;99.90;;;;;;4997402;28;20064;-82
2023/01/02 09:56:01;;;;;;;;;;;8.80;99.90;;;;;;5012844;28;19937;-82
2023/01/02 09:58:39;;;;;;;;;;;8.80;99.90;;;;;;5010658;28;19929;-82
2023/01/02 10:01:07;;;;;;;;;;;8.80;99.90;;;;;;5025328;28;19926;-82
2023/01/02 10:03:33;;;;;;;;;;;8.90;99.90;;;;;;5009258;28;20007;-82
2023/01/02 10:06:04;;;;;;;;;;;8.90;99.90;;;;;;5012530;28;19937;-81
2023/01/02 10:08:35;;;;;;;;;;;8.90;99.90;;;;;;5013848;28;19933;-82
2023/01/02 10:11:03;;;;;;;;;;;9.00;99.90;;;;;;5026515;28;19925;-82
2023/01/02 10:13:44;;;;;;;;;;;9.00;99.90;;;;;;5011153;28;19932;-82
2023/01/02 10:16:13;;;;;;;;;;;9.10;99.90;;;;;;4996134;28;19960;-82
2023/01/02 10:18:40;;;;;;;;;;;9.10;99.90;;;;;;5004924;28;19932;-81
2023/01/02 10:21:09;;;;;;;;;;;9.20;99.90;;;;;;5010529;28;19937;-82
2023/01/02 10:23:39;;;;;;;;;;;9.20;99.90;;;;;;5011532;28;19929;-83
2023/01/02 10:26:06;;;;;;;;;;;9.20;99.90;;;;;;5006783;28;19936;-82
2023/01/02 10:28:51;;;;;;;;;;;9.20;99.90;;;;;;4994049;28;20000;-82
2023/01/02 10:31:19;;;;;;;;;;;9.20;99.90;;;;;;5026782;28;20279;-82
2023/01/02 10:33:58;;;;;;;;;;;9.20;99.90;;;;;;5012732;28;19925;-81
2023/01/02 10:36:28;;;;;;;;;;;9.20;99.90;;;;;;4996304;28;19926;-81
2023/01/02 10:38:58;;;;;;;;;;;9.20;99.90;;;;;;5010829;28;19925;-82
2023/01/02 10:41:25;;;;;;;;;;;9.10;99.90;;;;;;5010404;28;20408;-81
2023/01/02 10:43:53;;;;;;;;;;;9.20;99.90;;;;;;5010206;28;20023;-81
2023/01/02 10:46:18;;;;;;;;;;;9.20;99.90;;;;;;5012682;28;19937;-82
2023/01/02 10:48:44;;;;;;;;;;;9.20;99.90;;;;;;5010870;28;20377;-81
2023/01/02 10:51:12;;;;;;;;;;;9.20;99.90;;;;;;5009837;28;20751;-82
2023/01/02 10:53:37;;;;;;;;;;;9.20;99.90;;;;;;5008332;28;19929;-81
2023/01/02 10:56:04;;;;;;;;;;;9.20;99.90;;;;;;5009170;28;19990;-81
2023/01/02 10:58:31;;;;;;;;;;;9.30;99.90;;;;;;5008867;28;20838;-81
2023/01/02 11:01:03;;;;;;;;;;;9.30;99.90;;;;;;5007710;28;19943;-81
2023/01/02 11:03:29;;;;;;;;;;;9.40;99.90;;;;;;5007130;28;20424;-81
2023/01/02 11:05:56;;;;;;;;;;;9.40;99.90;;;;;;5014449;28;20319;-81
2023/01/02 11:08:23;;;;;;;;;;;9.50;99.90;;;;;;5013891;28;19925;-81
2023/01/02 11:10:49;;;;;;;;;;;9.40;99.90;;;;;;5017096;28;19965;-81
2023/01/02 11:13:19;;;;;;;;;;;9.40;99.90;;;;;;5032372;28;20372;-81
2023/01/02 11:15:48;;;;;;;;;;;9.40;99.90;;;;;;5017162;28;19926;-81
2023/01/02 11:18:24;;;;;;;;;;;9.50;99.90;;;;;;5014894;28;19929;-81
2023/01/02 11:20:54;;;;;;;;;;;9.40;99.90;;;;;;5015259;28;19965;-81
2023/01/02 11:23:21;;;;;;;;;;;9.40;99.90;;;;;;5016088;28;19930;-80
2023/01/02 11:25:47;;;;;;;;;;;9.40;99.90;;;;;;5000622;28;19933;-81
2023/01/02 11:28:18;;;;;;;;;;;9.30;99.90;;;;;;5006815;28;20076;-80
2023/01/02 11:30:49;;;;;;;;;;;9.30;99.90;;;;;;5016901;28;19996;-81
2023/01/02 11:33:29;;;;;;;;;;;9.30;99.90;;;;;;5016206;28;20376;-81
2023/01/02 11:36:06;;;;;;;;;;;9.30;99.90;;;;;;5008927;28;19985;-81
2023/01/02 11:38:55;;;;;;;;;;;9.30;99.90;;;;;;4999869;28;20488;-81
2023/01/02 11:41:23;;;;;;;;;;;9.30;99.90;;;;;;5016525;28;19926;-81
2023/01/02 11:43:51;;;;;;;;;;;9.30;99.90;;;;;;5017120;28;20387;-80
2023/01/02 11:46:34;;;;;;;;;;;9.30;99.90;;;;;;5017228;28;19925;-80
2023/01/02 11:49:12;;;;;;;;;;;9.40;99.90;;;;;;5019885;28;20205;-80
2023/01/02 11:51:38;;;;;;;;;;;9.40;99.90;;;;;;5022239;28;19929;-81
2023/01/02 11:54:10;;;;;;;;;;;9.40;99.90;;;;;;5020553;28;19926;-81
2023/01/02 11:56:38;;;;;;;;;;;9.30;99.90;;;;;;5017791;28;19979;-80
2023/01/02 11:59:19;;;;;;;;;;;9.40;99.90;;;;;;5018280;28;19937;-80
2023/01/02 12:01:52;;;;;;;;;;;9.40;99.90;;;;;;5035122;28;20451;-81
2023/01/02 12:04:18;;;;;;;;;;;9.40;99.90;;;;;;5019428;28;19952;-80
2023/01/02 12:06:44;;;;;;;;;;;9.50;99.90;;;;;;5019172;28;20781;-81
2023/01/02 12:09:13;;;;;;;;;;;9.60;99.90;;;;;;5019695;28;20530;-80
2023/01/02 12:11:42;;;;;;;;;;;9.70;99.90;;;;;;5018528;28;19976;-81
2023/01/02 12:14:15;;;;;;;;;;;9.70;99.90;;;;;;5020169;28;19929;-80
2023/01/02 12:16:53;;;;;;;;;;;9.70;99.90;;;;;;5020089;28;19932;-80
2023/01/02 12:19:19;;;;;;;;;;;9.70;99.90;;;;;;5018614;28;19929;-79
2023/01/02 12:21:47;;;;;;;;;;;9.60;99.90;;;;;;5020170;28;19926;-81
2023/01/02 12:24:21;;;;;;;;;;;9.50;99.90;;;;;;5019402;28;20304;-81
2023/01/02 12:26:59;;;;;;;;;;;9.50;99.90;;;;;;5017180;28;19933;-81
2023/01/02 12:29:44;;;;;;;;;;;9.50;99.90;;;;;;5021666;28;19968;-81
2023/01/02 12:32:37;;;;;;;;;;;9.40;99.90;;;;;;5015359;28;19926;-81
2023/01/02 12:35:17;;;;;;;;;;;9.40;99.90;;;;;;5036478;28;19926;-81
2023/01/02 12:37:57;;;;;;;;;;;9.40;99.90;;;;;;5020183;28;19931;-81
2023/01/02 12:40:34;;;;;;;;;;;9.40;99.90;;;;;;5021091;28;19926;-81
2023/01/02 12:43:09;;;;;;;;;;;9.40;99.90;;;;;;5032876;28;19933;-81
2023/01/02 12:45:47;;;;;;;;;;;9.40;99.90;;;;;;5017480;28;19929;-81
2023/01/02 12:48:21;;;;;;;;;;;9.40;99.90;;;;;;5035972;28;19941;-81
2023/01/02 12:50:50;;;;;;;;;;;9.50;99.90;;;;;;5003576;28;19965;-81
2023/01/02 12:53:34;;;;;;;;;;;9.40;99.90;;;;;;5019963;28;19925;-81
2023/01/02 12:56:06;;;;;;;;;;;9.40;99.90;;;;;;5006175;28;19929;-81
2023/01/02 12:58:34;;;;;;;;;;;9.50;99.90;;;;;;5019287;28;19985;-81
2023/01/02 13:01:09;;;;;;;;;;;9.40;99.90;;;;;;5018128;28;19929;-81
2023/01/02 13:04:10;;;;;;;;;;;9.40;99.90;;;;;;5017108;28;19926;-81
2023/01/02 13:06:42;;;;;;;;;;;9.50;99.90;;;;;;4955629;29;19957;-81
2023/01/02 13:09:33;;;;;;;;;;;9.50;99.90;;;;;;4989350;28;19925;-81
2023/01/02 13:12:03;;;;;;;;;;;9.50;99.90;;;;;;5017768;28;19926;-81
2023/01/02 13:14:31;;;;;;;;;;;9.50;99.90;;;;;;5018110;28;19932;-81
2023/01/02 13:17:05;;;;;;;;;;;9.50;99.90;;;;;;5019378;28;20031;-81
2023/01/02 13:19:47;;;;;;;;;;;9.50;99.90;;;;;;5019103;28;19930;-81
2023/01/02 13:22:28;;;;;;;;;;;9.50;99.90;;;;;;5018921;28;19926;-80
2023/01/02 13:24:55;;;;;;;;;;;9.60;99.90;;;;;;5016381;28;20034;-81
2023/01/02 13:27:21;;;;;;;;;;;9.50;99.90;;;;;;5019252;28;20052;-80
2023/01/02 13:29:47;;;;;;;;;;;9.60;99.90;;;;;;5035534;28;20633;-81
2023/01/02 13:32:13;;;;;;;;;;;9.60;99.90;;;;;;5009997;28;19930;-80
2023/01/02 13:34:52;;;;;;;;;;;9.60;99.90;;;;;;5010561;28;19987;-80
2023/01/02 13:37:20;;;;;;;;;;;9.60;99.90;;;;;;5021119;28;19984;-80
2023/01/02 13:39:56;;;;;;;;;;;9.60;99.90;;;;;;5016265;28;19936;-80
2023/01/02 13:45:09;;;;;;;;;;;9.60;99.90;;;;;;5013522;28;19951;-80
2023/01/02 13:47:36;;;;;;;;;;;9.60;99.90;;;;;;5012779;28;20035;-80
2023/01/02 13:50:01;;;;;;;;;;;9.60;99.90;;;;;;5014696;28;19937;-80
2023/01/02 13:52:27;;;;;;;;;;;9.60;99.90;;;;;;5013075;28;19929;-80
2023/01/02 13:55:30;;;;;;;;;;;9.60;99.90;;;;;;5011885;28;19976;-80
2023/01/02 14:00:40;;;;;;;;;;;9.60;99.90;;;;;;5010365;28;19930;-80
2023/01/02 14:03:16;;;;;;;;;;;9.60;99.90;;;;;;5013644;28;20067;-80
2023/01/02 14:06:00;;;;;;;;;;;9.60;99.90;;;;;;5010589;28;19925;-79
2023/01/02 14:08:28;;;;;;;;;;;9.50;99.90;;;;;;4997208;28;19940;-80
2023/01/02 14:11:13;;;;;;;;;;;9.50;99.90;;;;;;5012973;28;20551;-81
2023/01/02 14:13:43;;;;;;;;;;;9.50;99.90;;;;;;5011690;28;19930;-81
2023/01/02 14:16:10;;;;;;;;;;;9.50;99.90;;;;;;5011055;28;19929;-81
2023/01/02 14:18:36;;;;;;;;;;;9.50;99.90;;;;;;5011440;28;19961;-80
2023/01/02 14:21:01;;;;;;;;;;;9.50;99.90;;;;;;5012123;28;19941;-81
2023/01/02 14:23:29;;;;;;;;;;;9.40;99.90;;;;;;5011707;28;20317;-81
2023/01/02 14:25:55;;;;;;;;;;;9.40;99.90;;;;;;5008144;28;19929;-81
2023/01/02 14:28:25;;;;;;;;;;;9.50;99.90;;;;;;5025072;28;19933;-78
2023/01/02 14:30:51;;;;;;;;;;;9.40;99.90;;;;;;5009290;28;19930;-81
2023/01/02 14:33:22;;;;;;;;;;;9.40;99.90;;;;;;5013435;28;20387;-79
2023/01/02 14:35:50;;;;;;;;;;;9.40;99.90;;;;;;5011147;28;19932;-81
2023/01/02 14:38:16;;;;;;;;;;;9.40;99.90;;;;;;5011358;28;19940;-81
2023/01/02 14:40:42;;;;;;;;;;;9.40;99.90;;;;;;5010811;28;19940;-81
2023/01/02 14:46:03;;;;;;;;;;;9.30;99.90;;;;;;5011037;28;19930;-80